Terminal Aerodrome Forecast
Issued by NWS

Home | Current Version | Previous Version | Text Only | Print | Product List | Glossary On
Versions: 1 2 3 4 5 6 7 8 9 10 11 12 13 14 15
000
FTUS45 KFGZ 051120
TAFPRC
TAF
KPRC 051120Z 0512/0612 18007KT P6SM SCT050 SCT250
     FM051830 20011G18KT P6SM SCT050
     FM060230 20006KT P6SM FEW050=

USA.gov is the U.S. government's official web portal to all federal, state and local government web resources and services.